sensor_id;sensor_type;location;lat;lon;timestamp;temperature;humidity
40822;DHT22;26542;50.836;5.356;2022-07-12T00:01:11;17.60;97.80
40822;DHT22;26542;50.836;5.356;2022-07-12T00:03:36;17.60;97.70
40822;DHT22;26542;50.836;5.356;2022-07-12T00:06:07;17.60;97.60
40822;DHT22;26542;50.836;5.356;2022-07-12T00:08:35;17.60;97.50
40822;DHT22;26542;50.836;5.356;2022-07-12T00:11:01;17.50;97.60
40822;DHT22;26542;50.836;5.356;2022-07-12T00:13:28;17.40;97.80
40822;DHT22;26542;50.836;5.356;2022-07-12T00:15:55;17.40;97.90
40822;DHT22;26542;50.836;5.356;2022-07-12T00:18:22;17.40;98.00
40822;DHT22;26542;50.836;5.356;2022-07-12T00:20:48;17.40;97.90
40822;DHT22;26542;50.836;5.356;2022-07-12T00:23:14;17.40;97.80
40822;DHT22;26542;50.836;5.356;2022-07-12T00:25:40;17.40;97.60
40822;DHT22;26542;50.836;5.356;2022-07-12T00:28:06;17.30;97.50
40822;DHT22;26542;50.836;5.356;2022-07-12T00:30:32;17.30;97.30
40822;DHT22;26542;50.836;5.356;2022-07-12T00:33:00;17.30;97.30
40822;DHT22;26542;50.836;5.356;2022-07-12T00:35:26;17.20;97.30
40822;DHT22;26542;50.836;5.356;2022-07-12T00:37:52;17.30;97.40
40822;DHT22;26542;50.836;5.356;2022-07-12T00:40:19;17.20;97.50
40822;DHT22;26542;50.836;5.356;2022-07-12T00:42:45;17.10;97.60
40822;DHT22;26542;50.836;5.356;2022-07-12T00:45:13;17.00;97.80
40822;DHT22;26542;50.836;5.356;2022-07-12T00:47:44;16.90;97.90
40822;DHT22;26542;50.836;5.356;2022-07-12T00:50:13;17.00;97.80
40822;DHT22;26542;50.836;5.356;2022-07-12T00:52:41;16.90;97.80
40822;DHT22;26542;50.836;5.356;2022-07-12T00:55:11;16.80;98.00
40822;DHT22;26542;50.836;5.356;2022-07-12T00:57:38;16.80;97.90
40822;DHT22;26542;50.836;5.356;2022-07-12T01:00:12;16.90;97.40
40822;DHT22;26542;50.836;5.356;2022-07-12T01:02:39;16.90;97.40
40822;DHT22;26542;50.836;5.356;2022-07-12T01:05:10;16.90;97.40
40822;DHT22;26542;50.836;5.356;2022-07-12T01:07:36;16.80;97.40
40822;DHT22;26542;50.836;5.356;2022-07-12T01:10:04;16.80;97.40
40822;DHT22;26542;50.836;5.356;2022-07-12T01:12:33;16.80;97.30
40822;DHT22;26542;50.836;5.356;2022-07-12T01:14:59;16.80;97.30
40822;DHT22;26542;50.836;5.356;2022-07-12T01:17:27;16.70;97.50
40822;DHT22;26542;50.836;5.356;2022-07-12T01:19:56;16.50;97.80
40822;DHT22;26542;50.836;5.356;2022-07-12T01:22:46;16.50;97.80
40822;DHT22;26542;50.836;5.356;2022-07-12T01:25:15;16.40;97.90
40822;DHT22;26542;50.836;5.356;2022-07-12T01:27:41;16.40;98.00
40822;DHT22;26542;50.836;5.356;2022-07-12T01:30:06;16.40;98.10
40822;DHT22;26542;50.836;5.356;2022-07-12T01:32:33;16.40;98.20
40822;DHT22;26542;50.836;5.356;2022-07-12T01:35:05;16.30;98.00
40822;DHT22;26542;50.836;5.356;2022-07-12T01:37:36;16.40;97.80
40822;DHT22;26542;50.836;5.356;2022-07-12T01:40:07;16.30;97.90
40822;DHT22;26542;50.836;5.356;2022-07-12T01:42:33;16.30;97.90
40822;DHT22;26542;50.836;5.356;2022-07-12T01:44:59;16.20;97.90
40822;DHT22;26542;50.836;5.356;2022-07-12T01:47:31;16.20;97.70
40822;DHT22;26542;50.836;5.356;2022-07-12T01:49:57;16.10;97.60
40822;DHT22;26542;50.836;5.356;2022-07-12T01:52:23;16.00;97.60
40822;DHT22;26542;50.836;5.356;2022-07-12T01:54:49;16.00;97.70
40822;DHT22;26542;50.836;5.356;2022-07-12T01:57:17;16.00;97.80
40822;DHT22;26542;50.836;5.356;2022-07-12T01:59:45;16.00;97.60
40822;DHT22;26542;50.836;5.356;2022-07-12T02:02:14;16.00;97.50
40822;DHT22;26542;50.836;5.356;2022-07-12T02:04:40;16.00;97.20
40822;DHT22;26542;50.836;5.356;2022-07-12T02:07:06;16.00;97.20
40822;DHT22;26542;50.836;5.356;2022-07-12T02:09:34;15.90;97.30
40822;DHT22;26542;50.836;5.356;2022-07-12T02:12:00;15.70;97.70
40822;DHT22;26542;50.836;5.356;2022-07-12T02:14:26;15.70;98.40
40822;DHT22;26542;50.836;5.356;2022-07-12T02:16:53;15.60;98.60
40822;DHT22;26542;50.836;5.356;2022-07-12T02:19:18;15.60;98.60
40822;DHT22;26542;50.836;5.356;2022-07-12T02:21:44;15.50;98.80
40822;DHT22;26542;50.836;5.356;2022-07-12T02:24:10;15.50;98.80
40822;DHT22;26542;50.836;5.356;2022-07-12T02:26:36;15.50;98.60
40822;DHT22;26542;50.836;5.356;2022-07-12T02:29:06;15.50;99.20
40822;DHT22;26542;50.836;5.356;2022-07-12T02:31:33;15.50;99.60
40822;DHT22;26542;50.836;5.356;2022-07-12T02:33:58;15.50;99.80
40822;DHT22;26542;50.836;5.356;2022-07-12T02:36:25;15.60;99.30
40822;DHT22;26542;50.836;5.356;2022-07-12T02:38:51;15.50;99.20
40822;DHT22;26542;50.836;5.356;2022-07-12T02:41:17;15.50;99.20
40822;DHT22;26542;50.836;5.356;2022-07-12T02:43:45;15.50;98.80
40822;DHT22;26542;50.836;5.356;2022-07-12T02:46:11;15.50;98.80
40822;DHT22;26542;50.836;5.356;2022-07-12T02:48:38;15.40;98.90
40822;DHT22;26542;50.836;5.356;2022-07-12T02:51:05;15.40;98.90
40822;DHT22;26542;50.836;5.356;2022-07-12T02:53:33;15.40;99.10
40822;DHT22;26542;50.836;5.356;2022-07-12T02:55:59;15.30;99.20
40822;DHT22;26542;50.836;5.356;2022-07-12T02:58:25;15.30;99.30
40822;DHT22;26542;50.836;5.356;2022-07-12T03:00:54;15.30;99.20
40822;DHT22;26542;50.836;5.356;2022-07-12T03:03:23;15.30;99.10
40822;DHT22;26542;50.836;5.356;2022-07-12T03:05:49;15.30;98.90
40822;DHT22;26542;50.836;5.356;2022-07-12T03:08:15;15.40;98.80
40822;DHT22;26542;50.836;5.356;2022-07-12T03:10:40;15.40;98.60
40822;DHT22;26542;50.836;5.356;2022-07-12T03:13:09;15.20;98.60
40822;DHT22;26542;50.836;5.356;2022-07-12T03:15:35;15.30;98.60
40822;DHT22;26542;50.836;5.356;2022-07-12T03:18:02;15.20;99.00
40822;DHT22;26542;50.836;5.356;2022-07-12T03:20:29;15.10;98.80
40822;DHT22;26542;50.836;5.356;2022-07-12T03:22:55;15.10;98.90
40822;DHT22;26542;50.836;5.356;2022-07-12T03:25:24;15.20;98.80
40822;DHT22;26542;50.836;5.356;2022-07-12T03:27:52;15.10;99.00
40822;DHT22;26542;50.836;5.356;2022-07-12T03:30:17;15.00;99.20
40822;DHT22;26542;50.836;5.356;2022-07-12T03:32:43;15.10;99.20
40822;DHT22;26542;50.836;5.356;2022-07-12T03:35:10;15.10;99.20
40822;DHT22;26542;50.836;5.356;2022-07-12T03:37:47;14.90;99.30
40822;DHT22;26542;50.836;5.356;2022-07-12T03:40:14;15.00;99.50
40822;DHT22;26542;50.836;5.356;2022-07-12T03:42:45;15.00;99.50
40822;DHT22;26542;50.836;5.356;2022-07-12T03:45:12;14.90;99.50
40822;DHT22;26542;50.836;5.356;2022-07-12T03:47:43;14.90;99.60
40822;DHT22;26542;50.836;5.356;2022-07-12T03:50:11;14.90;99.80
40822;DHT22;26542;50.836;5.356;2022-07-12T03:52:41;14.90;99.90
40822;DHT22;26542;50.836;5.356;2022-07-12T03:55:11;14.90;99.90
40822;DHT22;26542;50.836;5.356;2022-07-12T03:57:37;14.90;99.90
40822;DHT22;26542;50.836;5.356;2022-07-12T04:00:08;14.90;99.90
40822;DHT22;26542;50.836;5.356;2022-07-12T04:02:38;14.90;99.90
40822;DHT22;26542;50.836;5.356;2022-07-12T04:05:08;14.90;99.90
40822;DHT22;26542;50.836;5.356;2022-07-12T04:07:36;14.90;99.90
40822;DHT22;26542;50.836;5.356;2022-07-12T04:10:03;14.80;99.90
40822;DHT22;26542;50.836;5.356;2022-07-12T04:12:29;14.90;99.80
40822;DHT22;26542;50.836;5.356;2022-07-12T04:14:55;14.90;99.80
40822;DHT22;26542;50.836;5.356;2022-07-12T04:17:23;14.90;99.70
40822;DHT22;26542;50.836;5.356;2022-07-12T04:19:49;14.90;99.70
40822;DHT22;26542;50.836;5.356;2022-07-12T04:22:15;14.90;99.90
40822;DHT22;26542;50.836;5.356;2022-07-12T04:24:41;14.80;99.90
40822;DHT22;26542;50.836;5.356;2022-07-12T04:27:07;14.80;99.90
40822;DHT22;26542;50.836;5.356;2022-07-12T04:29:35;14.80;99.90
40822;DHT22;26542;50.836;5.356;2022-07-12T04:32:01;15.00;99.90
40822;DHT22;26542;50.836;5.356;2022-07-12T04:34:27;15.00;99.90
40822;DHT22;26542;50.836;5.356;2022-07-12T04:36:53;15.00;99.90
40822;DHT22;26542;50.836;5.356;2022-07-12T04:39:19;15.00;99.90
40822;DHT22;26542;50.836;5.356;2022-07-12T04:41:48;15.00;99.90
40822;DHT22;26542;50.836;5.356;2022-07-12T04:44:14;15.10;99.90
40822;DHT22;26542;50.836;5.356;2022-07-12T04:46:39;15.10;99.90
40822;DHT22;26542;50.836;5.356;2022-07-12T04:49:07;15.10;99.90
40822;DHT22;26542;50.836;5.356;2022-07-12T04:51:36;15.10;99.90
40822;DHT22;26542;50.836;5.356;2022-07-12T04:54:02;15.20;99.90
40822;DHT22;26542;50.836;5.356;2022-07-12T04:56:30;15.20;99.90
40822;DHT22;26542;50.836;5.356;2022-07-12T04:58:56;15.30;99.90
40822;DHT22;26542;50.836;5.356;2022-07-12T05:01:22;15.40;99.90
40822;DHT22;26542;50.836;5.356;2022-07-12T05:03:47;15.50;99.90
40822;DHT22;26542;50.836;5.356;2022-07-12T05:06:14;15.60;99.90
40822;DHT22;26542;50.836;5.356;2022-07-12T05:08:39;15.70;99.90
40822;DHT22;26542;50.836;5.356;2022-07-12T05:11:05;15.80;99.90
40822;DHT22;26542;50.836;5.356;2022-07-12T05:13:31;15.90;99.90
40822;DHT22;26542;50.836;5.356;2022-07-12T05:15:59;15.90;99.90
40822;DHT22;26542;50.836;5.356;2022-07-12T05:18:25;16.00;99.90
40822;DHT22;26542;50.836;5.356;2022-07-12T05:20:53;16.10;99.90
40822;DHT22;26542;50.836;5.356;2022-07-12T05:23:19;16.30;99.90
40822;DHT22;26542;50.836;5.356;2022-07-12T05:25:47;16.40;99.90
40822;DHT22;26542;50.836;5.356;2022-07-12T05:28:18;16.50;99.90
40822;DHT22;26542;50.836;5.356;2022-07-12T05:30:46;16.70;99.90
40822;DHT22;26542;50.836;5.356;2022-07-12T05:33:12;16.80;99.90
40822;DHT22;26542;50.836;5.356;2022-07-12T05:35:37;17.00;99.90
40822;DHT22;26542;50.836;5.356;2022-07-12T05:38:05;17.00;99.90
40822;DHT22;26542;50.836;5.356;2022-07-12T05:40:32;17.10;99.90
40822;DHT22;26542;50.836;5.356;2022-07-12T05:42:57;17.30;99.90
40822;DHT22;26542;50.836;5.356;2022-07-12T05:45:25;17.40;99.90
40822;DHT22;26542;50.836;5.356;2022-07-12T05:47:51;17.60;99.90
40822;DHT22;26542;50.836;5.356;2022-07-12T05:50:19;17.80;99.90
40822;DHT22;26542;50.836;5.356;2022-07-12T05:52:46;18.10;99.90
40822;DHT22;26542;50.836;5.356;2022-07-12T05:55:30;18.40;99.90
40822;DHT22;26542;50.836;5.356;2022-07-12T05:57:57;18.80;99.90
40822;DHT22;26542;50.836;5.356;2022-07-12T06:00:22;19.10;99.90
40822;DHT22;26542;50.836;5.356;2022-07-12T06:02:50;19.40;99.90
40822;DHT22;26542;50.836;5.356;2022-07-12T06:05:20;19.60;99.90
40822;DHT22;26542;50.836;5.356;2022-07-12T06:07:46;19.90;99.90
40822;DHT22;26542;50.836;5.356;2022-07-12T06:10:12;20.10;99.10
40822;DHT22;26542;50.836;5.356;2022-07-12T06:12:40;20.20;98.30
40822;DHT22;26542;50.836;5.356;2022-07-12T06:15:06;20.30;98.70
40822;DHT22;26542;50.836;5.356;2022-07-12T06:17:33;20.30;98.80
40822;DHT22;26542;50.836;5.356;2022-07-12T06:19:59;20.40;98.30
40822;DHT22;26542;50.836;5.356;2022-07-12T06:22:25;20.50;98.10
40822;DHT22;26542;50.836;5.356;2022-07-12T06:24:51;20.60;97.30
40822;DHT22;26542;50.836;5.356;2022-07-12T06:27:16;20.80;96.90
40822;DHT22;26542;50.836;5.356;2022-07-12T06:29:42;20.90;96.70
40822;DHT22;26542;50.836;5.356;2022-07-12T06:32:14;21.10;96.60
40822;DHT22;26542;50.836;5.356;2022-07-12T06:34:45;21.20;96.50
40822;DHT22;26542;50.836;5.356;2022-07-12T06:37:13;21.30;95.80
40822;DHT22;26542;50.836;5.356;2022-07-12T06:39:43;21.60;96.00
40822;DHT22;26542;50.836;5.356;2022-07-12T06:42:09;21.70;95.90
40822;DHT22;26542;50.836;5.356;2022-07-12T06:44:36;21.80;96.00
40822;DHT22;26542;50.836;5.356;2022-07-12T06:47:04;22.00;95.30
40822;DHT22;26542;50.836;5.356;2022-07-12T06:49:32;22.20;95.20
40822;DHT22;26542;50.836;5.356;2022-07-12T06:51:57;22.40;95.00
40822;DHT22;26542;50.836;5.356;2022-07-12T06:54:25;22.60;94.30
40822;DHT22;26542;50.836;5.356;2022-07-12T06:56:50;22.60;94.10
40822;DHT22;26542;50.836;5.356;2022-07-12T06:59:16;22.70;94.40
40822;DHT22;26542;50.836;5.356;2022-07-12T07:01:43;22.80;94.50
40822;DHT22;26542;50.836;5.356;2022-07-12T07:04:11;22.80;94.60
40822;DHT22;26542;50.836;5.356;2022-07-12T07:06:37;22.80;93.40
40822;DHT22;26542;50.836;5.356;2022-07-12T07:09:02;22.90;93.60
40822;DHT22;26542;50.836;5.356;2022-07-12T07:11:32;22.90;93.10
40822;DHT22;26542;50.836;5.356;2022-07-12T07:14:00;23.10;92.90
40822;DHT22;26542;50.836;5.356;2022-07-12T07:16:26;23.30;93.10
40822;DHT22;26542;50.836;5.356;2022-07-12T07:18:52;23.40;92.90
40822;DHT22;26542;50.836;5.356;2022-07-12T07:21:19;23.50;93.00
40822;DHT22;26542;50.836;5.356;2022-07-12T07:23:44;23.60;92.40
40822;DHT22;26542;50.836;5.356;2022-07-12T07:26:10;23.70;92.50
40822;DHT22;26542;50.836;5.356;2022-07-12T07:28:36;23.70;92.70
40822;DHT22;26542;50.836;5.356;2022-07-12T07:31:22;23.70;92.40
40822;DHT22;26542;50.836;5.356;2022-07-12T07:33:50;23.90;91.90
40822;DHT22;26542;50.836;5.356;2022-07-12T07:36:16;23.90;91.40
40822;DHT22;26542;50.836;5.356;2022-07-12T07:38:42;24.00;91.70
40822;DHT22;26542;50.836;5.356;2022-07-12T07:41:08;24.00;91.40
40822;DHT22;26542;50.836;5.356;2022-07-12T07:43:34;24.00;91.80
40822;DHT22;26542;50.836;5.356;2022-07-12T07:46:00;24.10;91.90
40822;DHT22;26542;50.836;5.356;2022-07-12T07:48:29;24.30;92.00
40822;DHT22;26542;50.836;5.356;2022-07-12T07:50:55;24.50;91.90
40822;DHT22;26542;50.836;5.356;2022-07-12T07:53:21;24.60;91.80
40822;DHT22;26542;50.836;5.356;2022-07-12T07:55:47;24.70;91.00
40822;DHT22;26542;50.836;5.356;2022-07-12T07:58:14;24.80;90.90
40822;DHT22;26542;50.836;5.356;2022-07-12T08:00:43;24.80;90.60
40822;DHT22;26542;50.836;5.356;2022-07-12T08:03:12;24.90;90.60
40822;DHT22;26542;50.836;5.356;2022-07-12T08:05:38;25.00;90.70
40822;DHT22;26542;50.836;5.356;2022-07-12T08:08:06;25.00;90.50
40822;DHT22;26542;50.836;5.356;2022-07-12T08:10:32;25.10;90.50
40822;DHT22;26542;50.836;5.356;2022-07-12T08:12:58;25.10;90.10
40822;DHT22;26542;50.836;5.356;2022-07-12T08:15:25;25.10;90.40
40822;DHT22;26542;50.836;5.356;2022-07-12T08:17:51;25.10;90.30
40822;DHT22;26542;50.836;5.356;2022-07-12T08:20:18;25.20;90.30
40822;DHT22;26542;50.836;5.356;2022-07-12T08:22:45;25.30;90.10
40822;DHT22;26542;50.836;5.356;2022-07-12T08:25:12;25.40;89.30
40822;DHT22;26542;50.836;5.356;2022-07-12T08:27:39;25.50;88.60
40822;DHT22;26542;50.836;5.356;2022-07-12T08:30:05;25.60;88.00
40822;DHT22;26542;50.836;5.356;2022-07-12T08:32:34;25.50;87.80
40822;DHT22;26542;50.836;5.356;2022-07-12T08:35:01;25.60;88.00
40822;DHT22;26542;50.836;5.356;2022-07-12T08:37:26;25.70;88.00
40822;DHT22;26542;50.836;5.356;2022-07-12T08:39:54;25.80;88.40
40822;DHT22;26542;50.836;5.356;2022-07-12T08:42:22;25.90;87.20
40822;DHT22;26542;50.836;5.356;2022-07-12T08:44:57;26.00;86.00
40822;DHT22;26542;50.836;5.356;2022-07-12T08:47:24;25.90;86.60
40822;DHT22;26542;50.836;5.356;2022-07-12T08:50:27;26.00;86.40
40822;DHT22;26542;50.836;5.356;2022-07-12T08:52:57;25.90;86.30
40822;DHT22;26542;50.836;5.356;2022-07-12T08:55:31;26.10;87.30
40822;DHT22;26542;50.836;5.356;2022-07-12T08:57:58;26.30;88.00
40822;DHT22;26542;50.836;5.356;2022-07-12T09:00:26;26.70;87.40
40822;DHT22;26542;50.836;5.356;2022-07-12T09:02:59;26.80;84.50
40822;DHT22;26542;50.836;5.356;2022-07-12T09:05:27;26.90;84.10
40822;DHT22;26542;50.836;5.356;2022-07-12T09:08:05;26.90;83.30
40822;DHT22;26542;50.836;5.356;2022-07-12T09:10:33;26.90;83.70
40822;DHT22;26542;50.836;5.356;2022-07-12T09:13:02;27.10;83.90
40822;DHT22;26542;50.836;5.356;2022-07-12T09:15:28;27.10;83.90
40822;DHT22;26542;50.836;5.356;2022-07-12T09:18:01;27.30;84.80
40822;DHT22;26542;50.836;5.356;2022-07-12T09:20:32;27.40;83.00
40822;DHT22;26542;50.836;5.356;2022-07-12T09:23:05;27.50;83.80
40822;DHT22;26542;50.836;5.356;2022-07-12T09:25:34;27.60;83.30
40822;DHT22;26542;50.836;5.356;2022-07-12T09:28:07;27.60;83.10
40822;DHT22;26542;50.836;5.356;2022-07-12T09:30:35;27.50;83.80
40822;DHT22;26542;50.836;5.356;2022-07-12T09:33:04;27.60;82.30
40822;DHT22;26542;50.836;5.356;2022-07-12T09:38:49;27.50;80.40
40822;DHT22;26542;50.836;5.356;2022-07-12T09:41:19;27.70;81.20
40822;DHT22;26542;50.836;5.356;2022-07-12T09:43:48;27.50;83.10
40822;DHT22;26542;50.836;5.356;2022-07-12T09:46:15;27.70;82.40
40822;DHT22;26542;50.836;5.356;2022-07-12T09:48:42;27.70;80.90
40822;DHT22;26542;50.836;5.356;2022-07-12T09:51:09;27.90;80.50
40822;DHT22;26542;50.836;5.356;2022-07-12T09:56:07;28.20;81.80
40822;DHT22;26542;50.836;5.356;2022-07-12T09:58:54;28.40;80.50
40822;DHT22;26542;50.836;5.356;2022-07-12T10:01:20;28.60;80.20
40822;DHT22;26542;50.836;5.356;2022-07-12T10:03:47;28.70;81.50
40822;DHT22;26542;50.836;5.356;2022-07-12T10:06:24;28.70;80.20
40822;DHT22;26542;50.836;5.356;2022-07-12T10:08:51;28.80;81.50
40822;DHT22;26542;50.836;5.356;2022-07-12T10:11:17;28.90;78.30
40822;DHT22;26542;50.836;5.356;2022-07-12T10:13:44;29.10;79.90
40822;DHT22;26542;50.836;5.356;2022-07-12T10:16:14;29.20;79.40
40822;DHT22;26542;50.836;5.356;2022-07-12T10:18:41;29.40;78.40
40822;DHT22;26542;50.836;5.356;2022-07-12T10:21:20;29.40;77.20
40822;DHT22;26542;50.836;5.356;2022-07-12T10:23:47;29.40;77.00
40822;DHT22;26542;50.836;5.356;2022-07-12T10:31:36;29.40;75.60
40822;DHT22;26542;50.836;5.356;2022-07-12T10:34:14;29.60;77.80
40822;DHT22;26542;50.836;5.356;2022-07-12T10:39:24;29.70;78.50
40822;DHT22;26542;50.836;5.356;2022-07-12T10:44:39;29.70;74.40
40822;DHT22;26542;50.836;5.356;2022-07-12T10:47:06;29.80;77.00
40822;DHT22;26542;50.836;5.356;2022-07-12T10:49:35;29.80;73.50
40822;DHT22;26542;50.836;5.356;2022-07-12T10:52:12;29.90;75.40
40822;DHT22;26542;50.836;5.356;2022-07-12T10:54:46;30.00;75.10
40822;DHT22;26542;50.836;5.356;2022-07-12T10:58:00;30.20;74.70
40822;DHT22;26542;50.836;5.356;2022-07-12T11:00:04;30.30;75.90
40822;DHT22;26542;50.836;5.356;2022-07-12T11:02:31;30.40;74.90
40822;DHT22;26542;50.836;5.356;2022-07-12T11:04:57;30.50;72.90
40822;DHT22;26542;50.836;5.356;2022-07-12T11:07:32;30.60;74.70
40822;DHT22;26542;50.836;5.356;2022-07-12T11:09:58;30.70;73.90
40822;DHT22;26542;50.836;5.356;2022-07-12T11:12:28;30.70;70.90
40822;DHT22;26542;50.836;5.356;2022-07-12T11:14:59;30.50;73.50
40822;DHT22;26542;50.836;5.356;2022-07-12T11:17:27;30.50;73.50
40822;DHT22;26542;50.836;5.356;2022-07-12T11:20:27;30.60;74.00
40822;DHT22;26542;50.836;5.356;2022-07-12T11:22:54;30.70;72.10
40822;DHT22;26542;50.836;5.356;2022-07-12T11:25:20;30.80;70.60
40822;DHT22;26542;50.836;5.356;2022-07-12T11:27:47;30.70;71.50
40822;DHT22;26542;50.836;5.356;2022-07-12T11:30:13;30.70;71.00
40822;DHT22;26542;50.836;5.356;2022-07-12T11:32:42;30.70;72.00
40822;DHT22;26542;50.836;5.356;2022-07-12T11:35:20;30.80;70.50
40822;DHT22;26542;50.836;5.356;2022-07-12T11:37:50;31.00;71.30
40822;DHT22;26542;50.836;5.356;2022-07-12T11:40:24;31.00;70.50
40822;DHT22;26542;50.836;5.356;2022-07-12T11:42:52;31.10;69.90
40822;DHT22;26542;50.836;5.356;2022-07-12T11:45:18;31.30;70.70
40822;DHT22;26542;50.836;5.356;2022-07-12T11:47:44;31.20;68.10
40822;DHT22;26542;50.836;5.356;2022-07-12T11:50:10;31.10;69.80
40822;DHT22;26542;50.836;5.356;2022-07-12T11:52:35;31.20;70.40
40822;DHT22;26542;50.836;5.356;2022-07-12T11:55:07;31.30;70.60
40822;DHT22;26542;50.836;5.356;2022-07-12T11:57:32;31.30;68.00
40822;DHT22;26542;50.836;5.356;2022-07-12T12:00:21;31.30;69.90
40822;DHT22;26542;50.836;5.356;2022-07-12T12:02:52;31.70;68.10
40822;DHT22;26542;50.836;5.356;2022-07-12T12:05:20;31.80;69.10
40822;DHT22;26542;50.836;5.356;2022-07-12T12:07:47;32.00;67.70
40822;DHT22;26542;50.836;5.356;2022-07-12T12:10:16;32.10;68.40
40822;DHT22;26542;50.836;5.356;2022-07-12T12:12:48;32.20;67.20
40822;DHT22;26542;50.836;5.356;2022-07-12T12:15:22;32.20;67.30
40822;DHT22;26542;50.836;5.356;2022-07-12T12:20:26;32.50;65.70
40822;DHT22;26542;50.836;5.356;2022-07-12T12:22:53;32.60;66.60
40822;DHT22;26542;50.836;5.356;2022-07-12T12:25:20;32.60;66.80
40822;DHT22;26542;50.836;5.356;2022-07-12T12:28:09;32.60;64.40
40822;DHT22;26542;50.836;5.356;2022-07-12T12:30:54;32.60;65.00
40822;DHT22;26542;50.836;5.356;2022-07-12T12:33:39;32.60;65.60
40822;DHT22;26542;50.836;5.356;2022-07-12T12:38:42;32.60;63.20
40822;DHT22;26542;50.836;5.356;2022-07-12T12:41:08;32.60;65.50
40822;DHT22;26542;50.836;5.356;2022-07-12T12:43:35;32.80;62.30
40822;DHT22;26542;50.836;5.356;2022-07-12T12:46:01;33.00;63.80
40822;DHT22;26542;50.836;5.356;2022-07-12T12:48:32;32.90;62.90
40822;DHT22;26542;50.836;5.356;2022-07-12T12:51:09;32.90;64.50
40822;DHT22;26542;50.836;5.356;2022-07-12T12:53:37;33.00;62.90
40822;DHT22;26542;50.836;5.356;2022-07-12T12:56:14;33.20;64.10
40822;DHT22;26542;50.836;5.356;2022-07-12T12:58:40;33.40;65.60
40822;DHT22;26542;50.836;5.356;2022-07-12T13:01:07;33.40;61.30
40822;DHT22;26542;50.836;5.356;2022-07-12T13:03:36;33.60;63.60
40822;DHT22;26542;50.836;5.356;2022-07-12T13:06:02;33.70;61.60
40822;DHT22;26542;50.836;5.356;2022-07-12T13:08:32;33.70;63.10
40822;DHT22;26542;50.836;5.356;2022-07-12T13:10:58;33.70;62.20
40822;DHT22;26542;50.836;5.356;2022-07-12T13:13:43;33.60;63.50
40822;DHT22;26542;50.836;5.356;2022-07-12T13:16:11;33.60;64.30
40822;DHT22;26542;50.836;5.356;2022-07-12T13:18:36;33.70;62.70
40822;DHT22;26542;50.836;5.356;2022-07-12T13:21:04;33.60;65.00
40822;DHT22;26542;50.836;5.356;2022-07-12T13:23:30;33.50;62.00
40822;DHT22;26542;50.836;5.356;2022-07-12T13:25:57;33.50;63.10
40822;DHT22;26542;50.836;5.356;2022-07-12T13:28:22;33.40;61.70
40822;DHT22;26542;50.836;5.356;2022-07-12T13:30:48;33.50;63.00
40822;DHT22;26542;50.836;5.356;2022-07-12T13:33:16;33.50;62.30
40822;DHT22;26542;50.836;5.356;2022-07-12T13:35:42;33.60;63.20
40822;DHT22;26542;50.836;5.356;2022-07-12T13:38:08;33.80;62.50
40822;DHT22;26542;50.836;5.356;2022-07-12T13:40:34;33.80;65.00
40822;DHT22;26542;50.836;5.356;2022-07-12T13:43:02;33.90;62.90
40822;DHT22;26542;50.836;5.356;2022-07-12T13:45:31;34.00;62.20
40822;DHT22;26542;50.836;5.356;2022-07-12T13:48:00;33.90;61.60
40822;DHT22;26542;50.836;5.356;2022-07-12T13:50:27;33.80;60.80
40822;DHT22;26542;50.836;5.356;2022-07-12T13:52:53;33.80;60.90
40822;DHT22;26542;50.836;5.356;2022-07-12T13:55:19;33.70;63.50
40822;DHT22;26542;50.836;5.356;2022-07-12T13:57:47;33.80;61.40
40822;DHT22;26542;50.836;5.356;2022-07-12T14:00:15;33.70;63.50
40822;DHT22;26542;50.836;5.356;2022-07-12T14:02:43;33.70;63.80
40822;DHT22;26542;50.836;5.356;2022-07-12T14:05:10;33.90;62.60
40822;DHT22;26542;50.836;5.356;2022-07-12T14:07:40;34.10;62.60
40822;DHT22;26542;50.836;5.356;2022-07-12T14:10:07;34.10;61.50
40822;DHT22;26542;50.836;5.356;2022-07-12T14:12:34;34.10;61.20
40822;DHT22;26542;50.836;5.356;2022-07-12T14:15:09;34.00;62.30
40822;DHT22;26542;50.836;5.356;2022-07-12T14:17:47;33.90;62.80
40822;DHT22;26542;50.836;5.356;2022-07-12T14:20:19;33.80;61.00
40822;DHT22;26542;50.836;5.356;2022-07-12T14:22:54;33.70;61.80
40822;DHT22;26542;50.836;5.356;2022-07-12T14:25:21;33.70;61.80
40822;DHT22;26542;50.836;5.356;2022-07-12T14:27:49;33.70;63.00
40822;DHT22;26542;50.836;5.356;2022-07-12T14:30:17;33.70;63.00
40822;DHT22;26542;50.836;5.356;2022-07-12T14:32:43;33.80;61.20
40822;DHT22;26542;50.836;5.356;2022-07-12T14:35:12;33.80;60.90
40822;DHT22;26542;50.836;5.356;2022-07-12T14:37:38;33.70;61.10
40822;DHT22;26542;50.836;5.356;2022-07-12T14:40:05;33.90;62.90
40822;DHT22;26542;50.836;5.356;2022-07-12T14:42:31;34.00;60.10
40822;DHT22;26542;50.836;5.356;2022-07-12T14:44:57;33.90;61.00
40822;DHT22;26542;50.836;5.356;2022-07-12T14:47:24;33.90;62.20
40822;DHT22;26542;50.836;5.356;2022-07-12T14:49:50;34.00;62.60
40822;DHT22;26542;50.836;5.356;2022-07-12T14:52:19;34.00;61.40
40822;DHT22;26542;50.836;5.356;2022-07-12T14:54:45;34.10;60.40
40822;DHT22;26542;50.836;5.356;2022-07-12T14:57:10;33.90;59.30
40822;DHT22;26542;50.836;5.356;2022-07-12T14:59:36;33.90;59.80
40822;DHT22;26542;50.836;5.356;2022-07-12T15:02:04;33.90;62.30
40822;DHT22;26542;50.836;5.356;2022-07-12T15:04:33;33.90;61.00
40822;DHT22;26542;50.836;5.356;2022-07-12T15:06:59;33.90;59.70
40822;DHT22;26542;50.836;5.356;2022-07-12T15:09:27;34.00;61.40
40822;DHT22;26542;50.836;5.356;2022-07-12T15:11:55;34.10;59.90
40822;DHT22;26542;50.836;5.356;2022-07-12T15:14:21;34.10;60.30
40822;DHT22;26542;50.836;5.356;2022-07-12T15:16:47;34.10;59.90
40822;DHT22;26542;50.836;5.356;2022-07-12T15:19:15;34.20;60.80
40822;DHT22;26542;50.836;5.356;2022-07-12T15:21:41;34.20;60.30
40822;DHT22;26542;50.836;5.356;2022-07-12T15:24:07;34.20;60.90
40822;DHT22;26542;50.836;5.356;2022-07-12T15:26:35;34.20;60.30
40822;DHT22;26542;50.836;5.356;2022-07-12T15:29:05;34.20;59.80
40822;DHT22;26542;50.836;5.356;2022-07-12T15:31:35;34.30;58.50
40822;DHT22;26542;50.836;5.356;2022-07-12T15:34:02;34.40;60.10
40822;DHT22;26542;50.836;5.356;2022-07-12T15:36:29;34.50;60.20
40822;DHT22;26542;50.836;5.356;2022-07-12T15:38:55;34.50;60.60
40822;DHT22;26542;50.836;5.356;2022-07-12T15:41:21;34.50;59.40
40822;DHT22;26542;50.836;5.356;2022-07-12T15:43:47;34.60;59.90
40822;DHT22;26542;50.836;5.356;2022-07-12T15:46:15;34.50;59.20
40822;DHT22;26542;50.836;5.356;2022-07-12T15:48:41;34.50;60.70
40822;DHT22;26542;50.836;5.356;2022-07-12T15:51:07;34.40;60.90
40822;DHT22;26542;50.836;5.356;2022-07-12T15:53:33;34.30;62.00
40822;DHT22;26542;50.836;5.356;2022-07-12T15:56:05;34.40;61.80
40822;DHT22;26542;50.836;5.356;2022-07-12T15:58:36;34.40;63.60